Hickory, NC (28601)

10:57 PM EST on January 25, 2015 (GMT -0500)
15th Street South East | Change Station
CLOSE
Current Station
Personal Weather Station
Location: Hickory, NC
Elevation: 1106 ft
Nearby Weather Stations

Elev 1106 ft 35.72 °N, 81.31 °W | Updated 5 seconds ago

Overcast
Overcast
47.3 °F
Feels Like 47 °F
N
0.0
Wind Variable Wind from SE
Gusts 1.0 mph

Today
High -- | Low -- °F
--% Chance of Precip.
Yesterday
High -- | Low -- °F
Precip. -- in
7:30 AM 5:45 PM
Waxing Crescent, 39% visible
Pressure 29.70 in
Visibility 10.0 miles
Clouds Scattered Clouds 12000 ft
Windchill 47 °F
Dew Point 34 °F
Humidity 60%
Rainfall 0.00 in
Snow Depth Not available.
UV 0 out of 12
Pollen 1.10 out of 12
Air Quality Not available.
Flu Activity Not available.
METAR KHKY 260353Z AUTO 00000KT 10SM SCT120 08/M02 A2972 RMK AO2 SLP056 T00831017

More Conditions Fewer Conditions

Pressure 29.70 in
Visibility 10.0 miles
Clouds Scattered Clouds 12000 ft
Windchill 47 °F
Dew Point 34 °F
Humidity 60%
Rainfall 0.00 in
Snow Depth Not available.
UV 0 out of 12
Pollen 1.10 out of 12
Air Quality Not available.
Flu Activity Not available.
METAR KHKY 260353Z AUTO 00000KT 10SM SCT120 08/M02 A2972 RMK AO2 SLP056 T00831017

More Conditions Fewer Conditions

10-Day Weather Forecast

Almanac

Astronomy

Jan. 25, 2015 Rise Set
Actual Time
Civil Twilight
Nautical Twilight
Astronomical Twilight
Moon
Length of Visible Light
Length of Day
Tomorrow will be .
, % of the Moon is Illuminated

Today's Extremes

State Highs State Lows

Community

WunderPhotos

Upload Photos

1,790,106 photos uploaded!

WunderBlogs® & News

Nearby

Air Quality

  Air Quality AQ Index Pollutant
Not available.

Snow Depth

Station Depth Elevation

Earthquake Activity

City Distance Mag. Time & Date
Minimum magnitude displayed is 2.5.

Coastal Water Temperatures

Place Temperature

Nearby Weather Stations